Time;durP1;ratioP1;P1;durP2;ratioP2;P2;SDS_P1;SDS_P2;PMS_P1;PMS_P2;Temp;Humidity;BMP_temperature;BMP_pressure;BME280_temperature;BME280_humidity;BME280_pressure;Samples;Min_cycle;Max_cycle;Signal;HPM_P1;HPM_P2
2022/03/04 00:02:00;;;;;;;0.50;0.40;;;;;;;;;;5053322;28;20496;-70
2022/03/04 00:04:27;;;;;;;0.30;0.30;;;;;;;;;;5053827;28;20044;-70
2022/03/04 00:06:54;;;;;;;1.07;0.50;;;;;;;;;;5053527;28;20040;-70
2022/03/04 00:09:21;;;;;;;0.35;0.35;;;;;;;;;;5053594;28;20444;-69
2022/03/04 00:11:48;;;;;;;0.57;0.40;;;;;;;;;;5053460;28;20041;-70
2022/03/04 00:14:14;;;;;;;0.47;0.30;;;;;;;;;;5053807;28;20102;-70
2022/03/04 00:16:41;;;;;;;0.73;0.70;;;;;;;;;;5053625;28;20057;-70
2022/03/04 00:19:09;;;;;;;0.55;0.55;;;;;;;;;;5047973;28;20045;-70
2022/03/04 00:21:37;;;;;;;0.43;0.30;;;;;;;;;;5052274;28;20421;-70
2022/03/04 00:24:04;;;;;;;1.30;0.68;;;;;;;;;;5053220;28;20053;-70
2022/03/04 00:26:31;;;;;;;0.57;0.57;;;;;;;;;;5053737;28;20061;-70
2022/03/04 00:28:58;;;;;;;0.60;0.60;;;;;;;;;;5053171;28;20049;-70
2022/03/04 00:31:24;;;;;;;0.60;0.60;;;;;;;;;;5053231;28;20053;-70
2022/03/04 00:33:51;;;;;;;0.77;0.77;;;;;;;;;;5053191;28;20416;-70
2022/03/04 00:36:22;;;;;;;1.17;0.70;;;;;;;;;;5053165;28;20451;-69
2022/03/04 00:38:49;;;;;;;0.90;0.90;;;;;;;;;;5052945;28;20457;-70
2022/03/04 00:41:19;;;;;;;0.70;0.70;;;;;;;;;;5052858;28;20040;-70
2022/03/04 00:43:46;;;;;;;0.82;0.70;;;;;;;;;;5053506;28;20061;-70
2022/03/04 00:46:13;;;;;;;1.02;1.02;;;;;;;;;;5053050;28;20063;-70
2022/03/04 00:48:41;;;;;;;0.80;0.80;;;;;;;;;;5053102;28;20044;-70
2022/03/04 00:51:08;;;;;;;0.70;0.70;;;;;;;;;;5034184;28;20045;-70
2022/03/04 00:53:34;;;;;;;0.75;0.75;;;;;;;;;;5052820;28;20041;-70
2022/03/04 00:56:01;;;;;;;1.05;0.70;;;;;;;;;;5051917;28;20056;-70
2022/03/04 00:58:28;;;;;;;1.25;0.80;;;;;;;;;;5048863;28;20546;-70
2022/03/04 01:00:55;;;;;;;0.70;0.70;;;;;;;;;;5052413;28;20431;-69
2022/03/04 01:03:21;;;;;;;0.60;0.60;;;;;;;;;;5052547;28;20124;-69
2022/03/04 01:05:48;;;;;;;0.60;0.60;;;;;;;;;;5052528;28;20047;-70
2022/03/04 01:08:14;;;;;;;0.63;0.63;;;;;;;;;;5052196;28;20079;-70
2022/03/04 01:10:41;;;;;;;1.58;0.90;;;;;;;;;;5052169;28;20497;-70
2022/03/04 01:13:08;;;;;;;0.90;0.90;;;;;;;;;;5052258;28;20500;-70
2022/03/04 01:15:38;;;;;;;1.88;0.90;;;;;;;;;;5052363;28;20052;-69
2022/03/04 01:18:05;;;;;;;1.10;0.95;;;;;;;;;;5048286;28;20046;-70
2022/03/04 01:20:32;;;;;;;0.88;0.88;;;;;;;;;;5050267;28;20057;-70
2022/03/04 01:22:58;;;;;;;1.17;1.00;;;;;;;;;;5050835;28;20045;-69
2022/03/04 01:25:25;;;;;;;2.05;1.00;;;;;;;;;;5052455;28;20057;-70
2022/03/04 01:27:51;;;;;;;1.25;1.00;;;;;;;;;;5052192;28;20052;-70
2022/03/04 01:30:18;;;;;;;2.40;1.08;;;;;;;;;;5051832;28;20049;-70
2022/03/04 01:32:46;;;;;;;1.23;1.20;;;;;;;;;;5052211;28;20090;-70
2022/03/04 01:35:12;;;;;;;1.55;1.42;;;;;;;;;;5051899;28;20099;-70
2022/03/04 01:37:39;;;;;;;1.42;1.33;;;;;;;;;;5051728;28;20045;-70
2022/03/04 01:40:07;;;;;;;1.58;1.40;;;;;;;;;;5052020;28;20056;-70
2022/03/04 01:42:34;;;;;;;1.95;1.85;;;;;;;;;;5052077;28;20053;-70
2022/03/04 01:45:01;;;;;;;2.10;1.92;;;;;;;;;;5051851;28;20056;-69
2022/03/04 01:47:27;;;;;;;3.08;2.30;;;;;;;;;;5051751;28;20056;-69
2022/03/04 01:49:54;;;;;;;2.95;2.65;;;;;;;;;;5051349;28;20497;-69
2022/03/04 01:52:20;;;;;;;3.55;2.53;;;;;;;;;;5031283;28;20071;-69
2022/03/04 01:54:47;;;;;;;2.60;2.40;;;;;;;;;;5031266;28;20508;-69
2022/03/04 01:57:13;;;;;;;2.88;2.50;;;;;;;;;;5031222;28;20095;-69
2022/03/04 01:59:40;;;;;;;2.72;2.53;;;;;;;;;;5031453;28;20053;-70
2022/03/04 02:02:07;;;;;;;2.63;2.22;;;;;;;;;;5031426;28;20057;-69
2022/03/04 02:04:34;;;;;;;2.37;2.17;;;;;;;;;;5031164;28;20045;-69
2022/03/04 02:07:01;;;;;;;2.50;2.22;;;;;;;;;;5030829;28;20084;-70
2022/03/04 02:09:28;;;;;;;2.88;2.42;;;;;;;;;;5030233;28;20049;-70
2022/03/04 02:11:54;;;;;;;2.40;2.20;;;;;;;;;;5031028;28;20394;-70
2022/03/04 02:14:21;;;;;;;2.08;1.83;;;;;;;;;;5036727;28;20075;-69
2022/03/04 02:16:47;;;;;;;2.00;1.83;;;;;;;;;;5051424;28;20091;-69
2022/03/04 02:19:14;;;;;;;2.03;1.88;;;;;;;;;;5037577;28;20053;-69
2022/03/04 02:21:47;;;;;;;1.80;1.67;;;;;;;;;;5047497;28;20069;-69
2022/03/04 02:24:13;;;;;;;2.75;1.77;;;;;;;;;;5051680;28;20102;-70
2022/03/04 02:26:40;;;;;;;1.95;1.65;;;;;;;;;;5051487;28;20447;-70
2022/03/04 02:29:06;;;;;;;1.60;1.50;;;;;;;;;;5051295;28;20057;-69
2022/03/04 02:31:32;;;;;;;1.92;1.67;;;;;;;;;;5051070;28;20083;-69
2022/03/04 02:33:59;;;;;;;1.92;1.83;;;;;;;;;;5051503;28;20045;-69
2022/03/04 02:36:25;;;;;;;1.98;1.88;;;;;;;;;;5051455;28;20049;-69
2022/03/04 02:38:52;;;;;;;2.10;1.63;;;;;;;;;;5051568;28;20439;-69
2022/03/04 02:41:18;;;;;;;1.85;1.75;;;;;;;;;;5051416;28;20048;-69
2022/03/04 02:43:45;;;;;;;1.45;1.40;;;;;;;;;;5051405;28;20052;-69
2022/03/04 02:46:13;;;;;;;2.00;1.80;;;;;;;;;;5050983;28;20057;-69
2022/03/04 02:48:40;;;;;;;1.80;1.63;;;;;;;;;;5051119;28;20045;-69
2022/03/04 02:51:06;;;;;;;2.38;1.58;;;;;;;;;;5050954;28;20543;-70
2022/03/04 02:53:32;;;;;;;1.50;1.40;;;;;;;;;;5051329;28;20044;-69
2022/03/04 02:55:59;;;;;;;1.98;1.48;;;;;;;;;;5051196;28;20056;-69
2022/03/04 02:58:25;;;;;;;2.08;1.73;;;;;;;;;;5051319;28;20044;-69
2022/03/04 03:00:52;;;;;;;3.95;1.80;;;;;;;;;;5049655;28;20493;-69
2022/03/04 03:03:19;;;;;;;1.10;1.08;;;;;;;;;;5051111;28;20053;-69
2022/03/04 03:05:45;;;;;;;2.97;1.65;;;;;;;;;;5051071;28;20090;-69
2022/03/04 03:08:12;;;;;;;1.98;1.40;;;;;;;;;;5050805;28;20079;-69
2022/03/04 03:10:39;;;;;;;1.27;1.17;;;;;;;;;;5050854;28;20500;-69
2022/03/04 03:13:05;;;;;;;1.40;0.93;;;;;;;;;;5051120;28;20107;-69
2022/03/04 03:15:32;;;;;;;3.20;1.02;;;;;;;;;;5051115;28;20435;-69
2022/03/04 03:17:58;;;;;;;1.10;1.00;;;;;;;;;;5047633;28;20437;-69
2022/03/04 03:20:25;;;;;;;1.83;1.10;;;;;;;;;;5051142;28;20048;-69
2022/03/04 03:22:51;;;;;;;1.75;1.00;;;;;;;;;;5054159;28;20061;-69
2022/03/04 03:25:18;;;;;;;1.60;1.35;;;;;;;;;;5054607;28;20451;-69
2022/03/04 03:27:44;;;;;;;0.93;0.90;;;;;;;;;;5054303;28;20049;-70
2022/03/04 03:30:11;;;;;;;1.15;1.02;;;;;;;;;;5054583;28;20049;-69
2022/03/04 03:32:38;;;;;;;0.95;0.93;;;;;;;;;;5047989;28;20057;-69
2022/03/04 03:35:07;;;;;;;1.27;1.17;;;;;;;;;;5054595;28;20049;-69
2022/03/04 03:37:34;;;;;;;1.30;1.05;;;;;;;;;;5054138;28;20493;-70
2022/03/04 03:40:01;;;;;;;2.75;1.42;;;;;;;;;;5054177;28;20045;-70
2022/03/04 03:42:27;;;;;;;2.45;0.90;;;;;;;;;;5053885;28;20057;-70
2022/03/04 03:44:54;;;;;;;0.93;0.77;;;;;;;;;;5054439;28;20106;-69
2022/03/04 03:47:20;;;;;;;1.05;0.88;;;;;;;;;;5054143;28;20045;-69
2022/03/04 03:49:47;;;;;;;0.65;0.65;;;;;;;;;;5054043;28;20098;-70
2022/03/04 03:52:14;;;;;;;0.73;0.73;;;;;;;;;;5053738;28;20052;-69
2022/03/04 03:54:40;;;;;;;1.50;0.90;;;;;;;;;;5053767;28;20095;-69
2022/03/04 03:57:07;;;;;;;0.98;0.52;;;;;;;;;;5053669;28;20045;-69
2022/03/04 03:59:33;;;;;;;0.85;0.82;;;;;;;;;;5053933;28;20471;-70
2022/03/04 04:02:00;;;;;;;2.58;0.70;;;;;;;;;;5053965;28;20053;-69
2022/03/04 04:04:26;;;;;;;1.10;0.80;;;;;;;;;;5054032;28;20049;-69
2022/03/04 04:06:53;;;;;;;2.78;1.13;;;;;;;;;;5053555;28;20049;-69
2022/03/04 04:09:19;;;;;;;0.85;0.70;;;;;;;;;;5053553;28;20049;-70
2022/03/04 04:11:46;;;;;;;1.23;0.90;;;;;;;;;;5053244;28;20484;-70
2022/03/04 04:14:12;;;;;;;0.95;0.75;;;;;;;;;;5053723;28;20122;-70
2022/03/04 04:16:39;;;;;;;1.25;0.80;;;;;;;;;;5053600;28;20044;-70
2022/03/04 04:19:05;;;;;;;2.05;0.90;;;;;;;;;;5048693;28;20045;-70
2022/03/04 04:21:34;;;;;;;1.58;0.80;;;;;;;;;;5053264;28;20060;-70
2022/03/04 04:24:00;;;;;;;1.88;0.90;;;;;;;;;;5053094;28;20052;-70
2022/03/04 04:26:27;;;;;;;1.30;1.00;;;;;;;;;;5053649;28;20448;-70
2022/03/04 04:28:53;;;;;;;1.17;0.82;;;;;;;;;;5053386;28;20400;-70
2022/03/04 04:31:20;;;;;;;1.65;0.93;;;;;;;;;;5052944;28;20546;-70
2022/03/04 04:33:46;;;;;;;0.98;0.88;;;;;;;;;;5052987;28;20052;-70
2022/03/04 04:36:13;;;;;;;0.80;0.75;;;;;;;;;;5053340;28;20045;-70
2022/03/04 04:38:39;;;;;;;1.33;1.17;;;;;;;;;;5052844;28;20052;-70
2022/03/04 04:41:06;;;;;;;1.30;0.98;;;;;;;;;;5052859;28;20049;-69
2022/03/04 04:43:33;;;;;;;1.00;0.87;;;;;;;;;;5053295;28;20107;-69
2022/03/04 04:46:00;;;;;;;0.82;0.82;;;;;;;;;;5053122;28;20095;-70
2022/03/04 04:48:26;;;;;;;1.15;0.70;;;;;;;;;;5053126;28;20049;-71
2022/03/04 04:50:53;;;;;;;0.85;0.85;;;;;;;;;;5052772;28;20053;-71
2022/03/04 04:53:19;;;;;;;1.10;1.00;;;;;;;;;;5052643;28;20091;-71
2022/03/04 04:55:46;;;;;;;2.00;0.90;;;;;;;;;;5052745;28;20048;-71
2022/03/04 04:58:12;;;;;;;1.05;0.90;;;;;;;;;;5052772;28;20535;-71
2022/03/04 05:00:40;;;;;;;1.45;1.10;;;;;;;;;;5052517;28;20049;-71
2022/03/04 05:03:07;;;;;;;;;;;;;;;;;;5053210;28;20049;-71
2022/03/04 05:05:35;;;;;;;0.73;0.70;;;;;;;;;;5052764;28;19967;-71
2022/03/04 05:08:02;;;;;;;1.33;0.90;;;;;;;;;;5052611;28;20094;-71
2022/03/04 05:10:29;;;;;;;1.92;1.13;;;;;;;;;;5051354;28;20057;-71
2022/03/04 05:12:55;;;;;;;1.85;0.90;;;;;;;;;;5052394;28;20083;-71
2022/03/04 05:15:22;;;;;;;2.05;1.08;;;;;;;;;;5052376;28;20052;-71
2022/03/04 05:17:51;;;;;;;2.80;1.17;;;;;;;;;;5050270;28;20095;-71
2022/03/04 05:20:18;;;;;;;1.27;1.17;;;;;;;;;;5024717;28;20095;-71
2022/03/04 05:22:44;;;;;;;1.40;1.30;;;;;;;;;;5052046;28;20111;-71
2022/03/04 05:25:10;;;;;;;2.72;1.38;;;;;;;;;;5052921;28;20405;-71
2022/03/04 05:27:42;;;;;;;1.33;1.23;;;;;;;;;;5052382;28;20137;-71
2022/03/04 05:30:09;;;;;;;1.83;1.40;;;;;;;;;;5052245;28;20041;-69
2022/03/04 05:32:35;;;;;;;1.50;1.40;;;;;;;;;;5052230;28;20049;-69
2022/03/04 05:35:03;;;;;;;1.40;1.30;;;;;;;;;;5052141;28;20106;-70
2022/03/04 05:37:29;;;;;;;2.20;1.38;;;;;;;;;;5051893;28;20053;-70
2022/03/04 05:39:56;;;;;;;2.15;1.65;;;;;;;;;;5052112;28;20118;-70
2022/03/04 05:42:22;;;;;;;2.38;1.50;;;;;;;;;;5051452;28;20417;-70
2022/03/04 05:44:49;;;;;;;1.63;1.30;;;;;;;;;;5052159;28;20052;-70
2022/03/04 05:47:15;;;;;;;1.23;1.20;;;;;;;;;;5052123;28;20131;-70
2022/03/04 05:49:42;;;;;;;1.30;1.00;;;;;;;;;;5051687;28;20509;-70
2022/03/04 05:52:08;;;;;;;1.33;1.15;;;;;;;;;;5051662;28;20090;-70
2022/03/04 05:54:34;;;;;;;1.20;0.95;;;;;;;;;;5051878;28;20040;-70
2022/03/04 05:57:01;;;;;;;1.33;0.95;;;;;;;;;;5051751;28;20041;-70
2022/03/04 05:59:28;;;;;;;0.80;0.80;;;;;;;;;;5051525;28;20479;-70
2022/03/04 06:01:54;;;;;;;1.13;0.90;;;;;;;;;;5051520;28;20477;-70
2022/03/04 06:04:21;;;;;;;0.93;0.80;;;;;;;;;;5050525;28;20472;-70
2022/03/04 06:06:48;;;;;;;1.58;1.08;;;;;;;;;;5051772;28;20049;-70
2022/03/04 06:09:14;;;;;;;0.85;0.82;;;;;;;;;;5051630;28;20412;-70
2022/03/04 06:11:41;;;;;;;1.10;0.73;;;;;;;;;;5051617;28;20076;-70
2022/03/04 06:14:07;;;;;;;2.13;1.02;;;;;;;;;;5051953;28;20099;-70
2022/03/04 06:16:33;;;;;;;3.08;1.17;;;;;;;;;;5051505;28;20094;-70
2022/03/04 06:19:00;;;;;;;1.80;1.15;;;;;;;;;;5049461;28;20053;-70
2022/03/04 06:21:26;;;;;;;1.58;1.08;;;;;;;;;;5051290;28;20194;-70
2022/03/04 06:23:53;;;;;;;1.77;1.40;;;;;;;;;;5051466;28;20534;-70
2022/03/04 06:26:20;;;;;;;2.90;1.77;;;;;;;;;;5051355;28;20053;-70
2022/03/04 06:28:46;;;;;;;4.18;2.15;;;;;;;;;;5023503;28;20432;-69
2022/03/04 06:31:13;;;;;;;2.88;2.30;;;;;;;;;;5051265;28;20053;-70
2022/03/04 06:33:40;;;;;;;4.85;2.10;;;;;;;;;;5051150;28;20086;-70
2022/03/04 06:36:09;;;;;;;2.47;2.20;;;;;;;;;;5051210;28;20099;-70
2022/03/04 06:38:39;;;;;;;3.65;2.00;;;;;;;;;;5051115;28;20122;-70
2022/03/04 06:41:05;;;;;;;2.65;1.83;;;;;;;;;;5051433;28;20099;-70
2022/03/04 06:43:32;;;;;;;1.80;1.70;;;;;;;;;;5051148;28;20044;-69
2022/03/04 06:45:59;;;;;;;3.05;2.00;;;;;;;;;;5044776;28;20041;-69
2022/03/04 06:48:27;;;;;;;3.00;2.00;;;;;;;;;;5043990;28;20045;-70
2022/03/04 06:50:54;;;;;;;2.17;1.75;;;;;;;;;;5043281;28;20041;-76
2022/03/04 06:53:20;;;;;;;1.95;1.73;;;;;;;;;;5030542;28;20046;-70
2022/03/04 06:55:47;;;;;;;2.28;1.95;;;;;;;;;;5032257;28;20049;-69
2022/03/04 06:58:14;;;;;;;1.92;1.58;;;;;;;;;;5034549;28;20575;-70
2022/03/04 07:00:41;;;;;;;4.13;2.00;;;;;;;;;;5034291;28;20095;-70
2022/03/04 07:03:08;;;;;;;3.35;1.85;;;;;;;;;;5045353;28;20504;-70
2022/03/04 07:05:35;;;;;;;3.17;2.00;;;;;;;;;;5054937;28;20053;-70
2022/03/04 07:08:03;;;;;;;1.85;1.70;;;;;;;;;;5048583;28;20045;-70
2022/03/04 07:10:29;;;;;;;2.45;1.50;;;;;;;;;;5033890;28;20057;-69
2022/03/04 07:12:56;;;;;;;2.53;1.80;;;;;;;;;;5034348;28;20042;-69
2022/03/04 07:15:22;;;;;;;3.55;2.10;;;;;;;;;;5039075;28;20098;-70
2022/03/04 07:17:49;;;;;;;3.55;2.28;;;;;;;;;;5046907;28;20045;-70
2022/03/04 07:20:15;;;;;;;3.42;2.10;;;;;;;;;;5034299;28;20050;-70
2022/03/04 07:22:43;;;;;;;5.75;2.20;;;;;;;;;;5033879;28;20053;-70
2022/03/04 07:25:12;;;;;;;4.18;2.20;;;;;;;;;;5050180;28;20056;-70
2022/03/04 07:27:39;;;;;;;3.25;2.20;;;;;;;;;;5054679;28;20455;-70
2022/03/04 07:30:07;;;;;;;2.28;2.08;;;;;;;;;;5054581;28;20103;-70
2022/03/04 07:32:34;;;;;;;4.50;2.30;;;;;;;;;;5053680;28;20045;-70
2022/03/04 07:35:00;;;;;;;6.80;2.35;;;;;;;;;;5046577;28;20049;-70
2022/03/04 07:37:27;;;;;;;4.32;2.60;;;;;;;;;;5033611;28;20057;-70
2022/03/04 07:39:53;;;;;;;7.70;3.20;;;;;;;;;;5036420;28;20044;-69
2022/03/04 07:42:20;;;;;;;7.68;4.88;;;;;;;;;;5049230;28;20100;-70
2022/03/04 07:44:46;;;;;;;6.97;4.68;;;;;;;;;;5039962;28;20563;-69
2022/03/04 07:47:13;;;;;;;6.68;3.90;;;;;;;;;;5033909;28;20132;-70
2022/03/04 07:49:42;;;;;;;4.25;2.63;;;;;;;;;;5033789;28;20045;-70
2022/03/04 07:52:09;;;;;;;3.40;2.35;;;;;;;;;;5033241;28;20049;-70
2022/03/04 07:54:35;;;;;;;5.73;2.00;;;;;;;;;;5033618;28;20053;-69
2022/03/04 07:57:02;;;;;;;3.53;2.05;;;;;;;;;;5033246;28;20049;-69
2022/03/04 07:59:29;;;;;;;4.10;2.20;;;;;;;;;;5033393;28;20048;-69
2022/03/04 08:01:55;;;;;;;4.45;2.42;;;;;;;;;;5033687;28;20448;-70
2022/03/04 08:04:22;;;;;;;7.05;2.42;;;;;;;;;;5044884;28;20508;-69
2022/03/04 08:06:48;;;;;;;5.40;1.95;;;;;;;;;;5042830;28;20547;-69
2022/03/04 08:09:14;;;;;;;9.07;2.25;;;;;;;;;;5035439;28;20049;-71
2022/03/04 08:11:41;;;;;;;4.13;2.10;;;;;;;;;;5053464;28;20044;-70
2022/03/04 08:14:07;;;;;;;4.50;2.30;;;;;;;;;;5035586;28;20045;-70
2022/03/04 08:16:35;;;;;;;5.90;2.55;;;;;;;;;;5053328;28;20122;-69
2022/03/04 08:19:03;;;;;;;7.15;3.13;;;;;;;;;;5039908;28;20049;-70
2022/03/04 08:21:29;;;;;;;4.72;2.05;;;;;;;;;;5034047;28;20046;-70
2022/03/04 08:23:56;;;;;;;6.25;2.13;;;;;;;;;;5041552;28;20053;-70
2022/03/04 08:26:22;;;;;;;4.80;1.90;;;;;;;;;;5053460;28;20064;-69
2022/03/04 08:28:49;;;;;;;5.32;1.90;;;;;;;;;;5053480;28;20045;-70
2022/03/04 08:31:16;;;;;;;4.80;1.77;;;;;;;;;;5053200;28;20575;-70
2022/03/04 08:33:44;;;;;;;4.13;2.00;;;;;;;;;;5053180;28;20047;-70
2022/03/04 08:36:10;;;;;;;;;;;;;;;;;;5038813;28;20559;-70
2022/03/04 08:38:37;;;;;;;4.53;1.90;;;;;;;;;;5047835;28;20419;-70
2022/03/04 08:41:04;;;;;;;5.68;1.98;;;;;;;;;;5037895;28;20095;-70
2022/03/04 08:43:34;;;;;;;6.53;1.85;;;;;;;;;;5052908;28;20641;-70
2022/03/04 08:46:01;;;;;;;3.42;1.50;;;;;;;;;;5051735;28;20296;-70
2022/03/04 08:48:28;;;;;;;4.20;1.50;;;;;;;;;;5052124;28;20049;-70
2022/03/04 08:50:55;;;;;;;4.95;1.65;;;;;;;;;;5052926;28;20099;-70
2022/03/04 08:53:22;;;;;;;5.53;1.60;;;;;;;;;;5052811;28;20480;-70
2022/03/04 08:55:50;;;;;;;3.88;1.63;;;;;;;;;;5052720;28;20041;-70
2022/03/04 08:58:17;;;;;;;7.10;1.38;;;;;;;;;;5052747;28;20049;-70
2022/03/04 09:00:43;;;;;;;5.65;1.48;;;;;;;;;;5052551;28;20071;-70
2022/03/04 09:03:10;;;;;;;2.95;1.10;;;;;;;;;;5052467;28;20049;-70
2022/03/04 09:05:37;;;;;;;5.45;1.10;;;;;;;;;;5052395;28;20515;-70
2022/03/04 09:08:03;;;;;;;4.18;1.10;;;;;;;;;;5052355;28;20501;-70
2022/03/04 09:10:30;;;;;;;3.88;1.13;;;;;;;;;;5052696;28;20045;-70
2022/03/04 09:13:02;;;;;;;5.32;1.38;;;;;;;;;;5052500;28;20398;-70
2022/03/04 09:15:28;;;;;;;5.00;1.30;;;;;;;;;;5052379;28;20049;-70
2022/03/04 09:17:54;;;;;;;5.03;1.52;;;;;;;;;;5049347;28;20045;-70
2022/03/04 09:20:21;;;;;;;5.63;1.10;;;;;;;;;;5052243;28;20048;-70
2022/03/04 09:22:48;;;;;;;4.35;1.40;;;;;;;;;;5052123;28;20060;-70
2022/03/04 09:25:14;;;;;;;3.35;1.13;;;;;;;;;;5052216;28;20504;-70
2022/03/04 09:27:42;;;;;;;4.97;1.10;;;;;;;;;;5052108;28;20049;-70
2022/03/04 09:30:08;;;;;;;2.67;1.00;;;;;;;;;;5052325;28;20049;-70
2022/03/04 09:32:35;;;;;;;3.10;0.90;;;;;;;;;;5052171;28;20118;-70
2022/03/04 09:35:01;;;;;;;3.83;1.02;;;;;;;;;;5052225;28;20083;-70
2022/03/04 09:37:28;;;;;;;3.77;1.00;;;;;;;;;;5052324;28;20103;-70
2022/03/04 09:39:54;;;;;;;6.47;1.48;;;;;;;;;;5052087;28;20385;-70
2022/03/04 09:42:22;;;;;;;3.70;1.23;;;;;;;;;;5043360;28;20548;-69
2022/03/04 09:44:48;;;;;;;3.60;0.85;;;;;;;;;;5037067;28;20046;-69
2022/03/04 09:47:19;;;;;;;3.53;1.00;;;;;;;;;;5031146;28;20049;-69
2022/03/04 09:49:46;;;;;;;5.65;1.30;;;;;;;;;;5032013;28;20064;-69
2022/03/04 09:52:13;;;;;;;5.35;1.20;;;;;;;;;;5031058;28;20123;-69
2022/03/04 09:54:39;;;;;;;4.77;1.03;;;;;;;;;;5042275;28;20202;-69
2022/03/04 09:57:06;;;;;;;2.97;1.07;;;;;;;;;;5041583;28;20045;-69
2022/03/04 09:59:33;;;;;;;5.20;0.90;;;;;;;;;;5030718;28;20041;-69
2022/03/04 10:01:59;;;;;;;3.85;1.02;;;;;;;;;;5030960;28;20287;-69
2022/03/04 10:04:27;;;;;;;5.88;1.10;;;;;;;;;;5031124;28;20049;-69
2022/03/04 10:06:53;;;;;;;;;;;;;;;;;;5031119;28;20088;-68
2022/03/04 10:09:38;;;;;;;4.70;0.80;;;;;;;;;;5028993;28;19988;-68
2022/03/04 10:12:07;;;;;;;6.40;1.13;;;;;;;;;;5030790;28;20049;-69
2022/03/04 10:14:33;;;;;;;4.53;1.25;;;;;;;;;;5031297;28;20041;-68
2022/03/04 10:17:00;;;;;;;3.90;0.90;;;;;;;;;;5030960;28;20057;-68
2022/03/04 10:19:28;;;;;;;4.85;1.10;;;;;;;;;;5030680;28;20087;-69
2022/03/04 10:21:58;;;;;;;3.00;0.63;;;;;;;;;;5030094;28;20279;-70
2022/03/04 10:24:34;;;;;;;2.53;0.70;;;;;;;;;;5030731;28;20080;-69
2022/03/04 10:27:02;;;;;;;4.80;1.02;;;;;;;;;;5030882;28;20061;-69
2022/03/04 10:29:38;;;;;;;3.00;1.02;;;;;;;;;;5033781;28;20088;-69
2022/03/04 10:32:19;;;;;;;8.10;1.67;;;;;;;;;;5034734;28;20092;-68
2022/03/04 10:34:55;;;;;;;4.70;1.00;;;;;;;;;;5034770;28;20045;-68
2022/03/04 10:37:23;;;;;;;3.35;1.08;;;;;;;;;;5034623;28;20432;-68
2022/03/04 10:39:56;;;;;;;3.05;0.77;;;;;;;;;;5034465;28;20046;-69
2022/03/04 10:42:39;;;;;;;4.20;0.77;;;;;;;;;;5036149;28;20095;-69
2022/03/04 10:45:07;;;;;;;3.88;0.88;;;;;;;;;;5034581;28;20055;-69
2022/03/04 10:47:44;;;;;;;6.05;0.90;;;;;;;;;;5034105;28;20042;-68
2022/03/04 10:50:10;;;;;;;;;;;;;;;;;;5034626;28;20509;-68
2022/03/04 10:52:50;;;;;;;3.13;0.98;;;;;;;;;;5034384;28;19931;-68
2022/03/04 10:55:32;;;;;;;4.80;1.20;;;;;;;;;;5034210;28;20505;-68
2022/03/04 10:57:59;;;;;;;2.92;1.02;;;;;;;;;;5034316;28;20045;-68
2022/03/04 11:00:27;;;;;;;2.22;1.00;;;;;;;;;;5034331;28;20041;-68
2022/03/04 11:02:54;;;;;;;3.60;0.90;;;;;;;;;;5034126;28;20060;-68
2022/03/04 11:05:21;;;;;;;4.38;0.70;;;;;;;;;;5034126;28;20106;-68
2022/03/04 11:07:48;;;;;;;3.58;1.10;;;;;;;;;;5033793;28;20045;-68
2022/03/04 11:10:15;;;;;;;4.22;0.93;;;;;;;;;;5032442;28;20111;-68
2022/03/04 11:12:42;;;;;;;5.00;1.00;;;;;;;;;;5033919;28;20049;-68
2022/03/04 11:15:09;;;;;;;4.72;1.00;;;;;;;;;;5033932;28;20053;-68
2022/03/04 11:17:36;;;;;;;5.55;1.00;;;;;;;;;;5033871;28;20107;-68
2022/03/04 11:20:03;;;;;;;3.90;1.00;;;;;;;;;;5033047;28;20053;-68
2022/03/04 11:22:30;;;;;;;3.15;0.88;;;;;;;;;;5053706;28;20459;-68
2022/03/04 11:25:04;;;;;;;5.35;1.67;;;;;;;;;;5041830;28;20162;-68
2022/03/04 11:27:32;;;;;;;4.93;1.30;;;;;;;;;;5053859;28;20044;-68
2022/03/04 11:29:59;;;;;;;4.80;1.30;;;;;;;;;;5054141;28;20045;-68
2022/03/04 11:32:29;;;;;;;5.07;1.30;;;;;;;;;;5047683;28;20053;-68
2022/03/04 11:34:56;;;;;;;2.40;1.13;;;;;;;;;;5033327;28;20049;-68
2022/03/04 11:37:23;;;;;;;3.58;1.00;;;;;;;;;;5033276;28;20486;-68
2022/03/04 11:40:04;;;;;;;5.63;1.38;;;;;;;;;;5032736;28;20119;-68
2022/03/04 11:42:38;;;;;;;6.43;1.50;;;;;;;;;;5050781;28;20041;-69
2022/03/04 11:45:07;;;;;;;2.97;1.08;;;;;;;;;;5053231;28;20115;-68
2022/03/04 11:47:37;;;;;;;5.43;1.13;;;;;;;;;;5052942;28;20455;-68
2022/03/04 11:50:22;;;;;;;4.38;1.42;;;;;;;;;;5052954;28;20049;-68
2022/03/04 11:52:48;;;;;;;3.33;1.20;;;;;;;;;;5044418;28;20053;-68
2022/03/04 11:55:20;;;;;;;3.15;1.13;;;;;;;;;;5045076;28;20107;-68
2022/03/04 11:57:48;;;;;;;4.28;1.45;;;;;;;;;;5053501;28;20451;-68
2022/03/04 12:00:16;;;;;;;3.80;1.45;;;;;;;;;;5036804;28;20100;-68
2022/03/04 12:02:43;;;;;;;4.35;1.52;;;;;;;;;;5046916;28;20059;-68
2022/03/04 12:05:12;;;;;;;4.65;1.45;;;;;;;;;;5053109;28;20049;-68
2022/03/04 12:07:42;;;;;;;5.05;1.30;;;;;;;;;;5053384;28;20481;-68
2022/03/04 12:10:16;;;;;;;4.70;1.15;;;;;;;;;;5050702;28;20049;-68
2022/03/04 12:12:58;;;;;;;6.50;1.30;;;;;;;;;;5053168;28;20456;-68
2022/03/04 12:15:25;;;;;;;5.13;2.17;;;;;;;;;;5053156;28;20049;-68
2022/03/04 12:18:04;;;;;;;4.30;1.33;;;;;;;;;;5050594;28;20045;-69
2022/03/04 12:20:40;;;;;;;5.50;1.92;;;;;;;;;;5053001;28;20045;-69
2022/03/04 12:23:07;;;;;;;4.95;1.23;;;;;;;;;;5052650;28;20603;-69
2022/03/04 12:25:51;;;;;;;4.38;1.30;;;;;;;;;;5052848;28;20061;-69
2022/03/04 12:28:20;;;;;;;4.15;1.10;;;;;;;;;;5053005;28;20053;-69
2022/03/04 12:31:06;;;;;;;3.40;1.10;;;;;;;;;;5052918;28;20107;-69
2022/03/04 12:33:37;;;;;;;2.65;0.80;;;;;;;;;;5052375;28;20156;-69
2022/03/04 12:36:04;;;;;;;4.40;1.02;;;;;;;;;;5045075;28;20107;-69
2022/03/04 12:38:37;;;;;;;2.85;1.00;;;;;;;;;;5043950;28;20045;-69
2022/03/04 12:41:04;;;;;;;4.35;0.80;;;;;;;;;;5052503;28;20091;-69
2022/03/04 12:43:30;;;;;;;4.70;1.20;;;;;;;;;;5052707;28;20095;-69
2022/03/04 12:45:57;;;;;;;3.63;1.02;;;;;;;;;;5052609;28;20091;-70
2022/03/04 12:48:24;;;;;;;2.70;0.60;;;;;;;;;;5052266;28;20057;-67
2022/03/04 12:50:50;;;;;;;3.40;0.82;;;;;;;;;;5051301;28;20103;-68
2022/03/04 12:53:31;;;;;;;4.18;1.40;;;;;;;;;;5052172;28;20546;-67
2022/03/04 12:56:01;;;;;;;4.47;1.15;;;;;;;;;;5052093;28;20497;-67
2022/03/04 12:58:35;;;;;;;2.45;0.90;;;;;;;;;;5052138;28;20104;-68
2022/03/04 13:01:02;;;;;;;3.38;1.23;;;;;;;;;;5052465;28;20049;-68
2022/03/04 13:03:31;;;;;;;4.72;1.75;;;;;;;;;;5052208;28;20053;-67
2022/03/04 13:05:58;;;;;;;4.00;1.55;;;;;;;;;;5052206;28;20171;-67
2022/03/04 13:08:24;;;;;;;4.20;1.10;;;;;;;;;;5044467;28;20398;-67
2022/03/04 13:10:52;;;;;;;4.37;1.23;;;;;;;;;;5043304;28;20052;-67
2022/03/04 13:13:20;;;;;;;4.32;1.63;;;;;;;;;;5051646;28;20863;-67
2022/03/04 13:15:47;;;;;;;7.13;1.70;;;;;;;;;;5052244;28;20053;-69
2022/03/04 13:18:14;;;;;;;6.57;1.20;;;;;;;;;;5037478;28;20098;-68
2022/03/04 13:20:59;;;;;;;3.75;1.92;;;;;;;;;;5052081;28;20463;-68
2022/03/04 13:23:26;;;;;;;4.15;1.80;;;;;;;;;;5041293;28;20058;-68
2022/03/04 13:25:52;;;;;;;3.35;1.55;;;;;;;;;;5048227;28;20049;-67
2022/03/04 13:28:19;;;;;;;6.22;1.70;;;;;;;;;;5051830;28;20118;-68
2022/03/04 13:30:48;;;;;;;3.00;1.25;;;;;;;;;;5037733;28;20563;-69
2022/03/04 13:33:15;;;;;;;4.50;1.20;;;;;;;;;;5037795;28;20056;-70
2022/03/04 13:35:55;;;;;;;3.65;1.05;;;;;;;;;;5030165;28;20119;-70
2022/03/04 13:38:23;;;;;;;4.63;1.60;;;;;;;;;;5040023;28;20045;-71
2022/03/04 13:40:50;;;;;;;3.88;1.30;;;;;;;;;;5051601;28;20041;-68
2022/03/04 13:43:26;;;;;;;4.50;1.30;;;;;;;;;;5045451;28;20087;-68
2022/03/04 13:45:54;;;;;;;4.25;1.33;;;;;;;;;;5030935;28;20559;-68
2022/03/04 13:48:23;;;;;;;3.42;1.05;;;;;;;;;;5039868;28;20075;-68
2022/03/04 13:50:50;;;;;;;3.58;1.13;;;;;;;;;;5043619;28;20106;-67
2022/03/04 13:53:21;;;;;;;4.78;1.10;;;;;;;;;;5031240;28;20468;-68
2022/03/04 13:55:50;;;;;;;5.18;1.50;;;;;;;;;;5036962;28;20045;-68
2022/03/04 13:58:29;;;;;;;5.40;1.30;;;;;;;;;;5048894;28;20045;-70
2022/03/04 14:00:59;;;;;;;4.32;1.42;;;;;;;;;;5047171;28;20126;-71
2022/03/04 14:03:26;;;;;;;5.32;1.33;;;;;;;;;;5030553;28;20049;-70
2022/03/04 14:06:00;;;;;;;6.53;1.30;;;;;;;;;;5031139;28;20409;-70
2022/03/04 14:08:27;;;;;;;4.63;1.52;;;;;;;;;;5030746;28;20497;-70
2022/03/04 14:10:53;;;;;;;6.75;1.50;;;;;;;;;;5029112;28;20053;-70
2022/03/04 14:13:21;;;;;;;3.80;1.42;;;;;;;;;;5030915;28;20049;-70
2022/03/04 14:15:49;;;;;;;6.65;1.48;;;;;;;;;;5030704;28;20106;-70
2022/03/04 14:18:16;;;;;;;3.67;1.27;;;;;;;;;;5030774;28;20049;-70
2022/03/04 14:20:43;;;;;;;5.15;1.40;;;;;;;;;;5024642;28;20449;-70
2022/03/04 14:23:11;;;;;;;5.57;1.90;;;;;;;;;;5029762;28;20383;-70
2022/03/04 14:25:37;;;;;;;6.80;2.10;;;;;;;;;;5030462;28;20045;-70
2022/03/04 14:28:05;;;;;;;7.00;1.50;;;;;;;;;;5032892;28;20088;-70
2022/03/04 14:30:33;;;;;;;4.53;1.70;;;;;;;;;;5030279;28;20502;-70
2022/03/04 14:32:59;;;;;;;6.07;1.48;;;;;;;;;;5045854;28;20115;-70
2022/03/04 14:35:27;;;;;;;4.18;1.55;;;;;;;;;;5030415;28;20057;-71
2022/03/04 14:37:54;;;;;;;3.67;1.20;;;;;;;;;;5030635;28;20045;-70
2022/03/04 14:40:21;;;;;;;4.37;1.30;;;;;;;;;;5028583;28;20041;-70
2022/03/04 14:42:49;;;;;;;4.03;1.20;;;;;;;;;;5050139;28;20282;-71
2022/03/04 14:45:15;;;;;;;;;;;;;;;;;;5051333;28;20049;-71
2022/03/04 14:47:44;;;;;;;5.63;1.20;;;;;;;;;;5035881;28;19925;-71
2022/03/04 14:50:12;;;;;;;2.92;1.23;;;;;;;;;;5043488;28;20049;-72